Time;durP1;ratioP1;P1;durP2;ratioP2;P2;SDS_P1;SDS_P2;PMS_P1;PMS_P2;Temp;Humidity;BMP_temperature;BMP_pressure;BME280_temperature;BME280_humidity;BME280_pressure;Samples;Min_cycle;Max_cycle;Signal;HPM_P1;HPM_P2
2022/12/27 00:02:19;;;;;;;;;;;;;;;3.02;90.57;102088.84;5053833;28;19920;-67
2022/12/27 00:04:45;;;;;;;;;;;;;;;3.12;89.37;102101.00;5067067;28;19917;-67
2022/12/27 00:07:10;;;;;;;;;;;;;;;3.00;90.25;102103.75;5050565;28;20007;-67
2022/12/27 00:09:35;;;;;;;;;;;;;;;3.09;90.16;102103.63;5052307;28;20220;-68
2022/12/27 00:12:01;;;;;;;;;;;;;;;2.98;90.55;102114.28;5051711;28;19917;-67
2022/12/27 00:14:28;;;;;;;;;;;;;;;2.98;91.33;102108.16;5052285;28;19908;-67
2022/12/27 00:16:54;;;;;;;;;;;;;;;3.05;90.79;102123.84;5051533;28;19908;-68
2022/12/27 00:19:19;;;;;;;;;;;;;;;3.00;90.59;102117.78;5051017;28;19966;-67
2022/12/27 00:21:45;;;;;;;;;;;;;;;3.01;91.07;102116.88;5051812;28;19958;-67
2022/12/27 00:24:10;;;;;;;;;;;;;;;3.13;90.69;102110.63;5051184;28;19913;-67
2022/12/27 00:26:39;;;;;;;;;;;;;;;3.19;89.83;102114.03;5051482;28;19923;-67
2022/12/27 00:29:05;;;;;;;;;;;;;;;3.17;89.45;102105.28;5051300;28;20011;-67
2022/12/27 00:31:33;;;;;;;;;;;;;;;3.05;91.47;102113.31;5051736;28;20007;-67
2022/12/27 00:34:00;;;;;;;;;;;;;;;3.05;91.23;102109.81;5051181;28;20421;-67
2022/12/27 00:36:27;;;;;;;;;;;;;;;3.02;91.02;102117.75;5050644;28;20038;-67
2022/12/27 00:38:53;;;;;;;;;;;;;;;2.96;91.94;102105.53;5050868;28;19908;-67
2022/12/27 00:41:19;;;;;;;;;;;;;;;3.11;90.75;102104.50;5057494;28;19922;-67
2022/12/27 00:43:44;;;;;;;;;;;;;;;3.10;90.59;102105.41;5070192;28;19916;-67
2022/12/27 00:46:09;;;;;;;;;;;;;;;3.10;90.43;102103.63;5071068;28;19908;-67
2022/12/27 00:48:35;;;;;;;;;;;;;;;3.02;91.46;102112.50;5072639;28;19965;-67
2022/12/27 00:51:05;;;;;;;;;;;;;;;2.94;92.12;102113.47;5073285;28;19935;-68
2022/12/27 00:53:31;;;;;;;;;;;;;;;3.03;91.80;102115.13;5074458;28;20369;-68
2022/12/27 00:55:56;;;;;;;;;;;;;;;2.94;92.82;102109.94;5073868;28;19908;-67
2022/12/27 00:58:22;;;;;;;;;;;;;;;2.95;92.52;102122.22;5053410;28;19917;-67
2022/12/27 01:00:48;;;;;;;;;;;;;;;3.01;92.61;102131.78;5056996;28;19912;-67
2022/12/27 01:03:13;;;;;;;;;;;;;;;2.98;92.55;102139.69;5063423;28;19917;-67
2022/12/27 01:05:41;;;;;;;;;;;;;;;3.13;91.70;102143.03;5055245;28;20409;-67
2022/12/27 01:08:08;;;;;;;;;;;;;;;3.03;92.33;102141.41;5052892;28;20385;-67
2022/12/27 01:10:34;;;;;;;;;;;;;;;3.02;91.66;102147.53;5063671;28;19916;-67
2022/12/27 01:13:00;;;;;;;;;;;;;;;3.05;91.91;102147.47;5074683;28;19915;-67
2022/12/27 01:15:26;;;;;;;;;;;;;;;2.98;93.37;102139.69;5054868;28;20342;-68
2022/12/27 01:17:52;;;;;;;;;;;;;;;3.02;93.36;102150.16;5054607;28;19915;-68
2022/12/27 01:20:17;;;;;;;;;;;;;;;2.97;93.28;102146.69;5058144;28;19913;-67
2022/12/27 01:22:43;;;;;;;;;;;;;;;3.04;92.75;102155.41;5073541;28;19913;-67
2022/12/27 01:25:09;;;;;;;;;;;;;;;2.96;93.08;102153.72;5074413;28;19919;-67
2022/12/27 01:27:34;;;;;;;;;;;;;;;3.01;92.90;102161.56;5090203;28;20060;-67
2022/12/27 01:30:00;;;;;;;;;;;;;;;2.99;92.77;102163.31;5064312;28;19921;-67
2022/12/27 01:32:26;;;;;;;;;;;;;;;3.04;92.70;102153.63;5054300;28;19967;-68
2022/12/27 01:34:51;;;;;;;;;;;;;;;3.05;93.56;102167.66;5054244;28;20367;-67
2022/12/27 01:37:16;;;;;;;;;;;;;;;3.01;93.38;102163.31;5054075;28;19999;-68
2022/12/27 01:39:44;;;;;;;;;;;;;;;2.96;93.76;102163.34;5055329;28;19988;-67
2022/12/27 01:44:58;;;;;;;;;;;;;;;3.03;93.55;102169.41;5081497;28;19977;-68
2022/12/27 01:47:27;;;;;;;;;;;;;;;3.10;93.21;102165.84;5053845;28;20419;-68
2022/12/27 01:50:11;;;;;;;;;;;;;;;2.99;94.27;102171.22;5062323;28;19923;-67
2022/12/27 01:52:38;;;;;;;;;;;;;;;2.95;94.44;102166.88;5073372;28;19916;-67
2022/12/27 01:55:30;;;;;;;;;;;;;;;3.01;93.82;102181.72;5070987;28;19908;-67
2022/12/27 01:58:16;;;;;;;;;;;;;;;2.97;95.22;102178.22;5069833;28;19969;-67
2022/12/27 02:00:43;;;;;;;;;;;;;;;3.01;94.92;102189.59;5070940;28;19962;-67
2022/12/27 02:03:12;;;;;;;;;;;;;;;2.92;95.60;102195.81;5072210;28;19995;-68
2022/12/27 02:05:40;;;;;;;;;;;;;;;3.06;94.29;102201.81;5073586;28;19908;-68
2022/12/27 02:08:24;;;;;;;;;;;;;;;2.94;96.11;102200.19;5073002;28;20280;-68
2022/12/27 02:10:49;;;;;;;;;;;;;;;2.97;95.56;102194.00;5054466;28;19928;-67
2022/12/27 02:13:15;;;;;;;;;;;;;;;3.07;95.79;102198.28;5053790;28;19913;-68
2022/12/27 02:15:40;;;;;;;;;;;;;;;3.11;94.79;102194.72;5053444;28;19915;-67
2022/12/27 02:18:06;;;;;;;;;;;;;;;3.03;95.69;102195.69;5051779;28;19920;-67
2022/12/27 02:20:38;;;;;;;;;;;;;;;3.04;95.95;102206.19;5085311;28;19939;-67
2022/12/27 02:26:02;;;;;;;;;;;;;;;3.12;95.21;102200.88;5053414;28;20280;-68
2022/12/27 02:28:46;;;;;;;;;;;;;;;3.04;96.28;102205.34;5051557;28;19920;-67
2022/12/27 02:31:18;;;;;;;;;;;;;;;3.00;96.42;102200.97;5064119;28;19917;-67
2022/12/27 02:33:48;;;;;;;;;;;;;;;3.10;95.73;102194.75;5053045;28;20379;-67
2022/12/27 02:36:16;;;;;;;;;;;;;;;3.24;95.25;102203.38;5053004;28;19916;-67
2022/12/27 02:38:47;;;;;;;;;;;;;;;3.15;95.03;102206.97;5052623;28;19916;-67
2022/12/27 02:55:18;;;;;;;;;;;;;;;3.04;96.45;102214.09;5052454;28;19915;-67
2022/12/27 02:57:49;;;;;;;;;;;;;;;3.15;96.09;102206.97;5054147;28;19920;-67
2022/12/27 03:03:22;;;;;;;;;;;;;;;3.04;97.16;102202.72;5049890;28;20296;-67
2022/12/27 03:08:54;;;;;;;;;;;;;;;3.06;97.27;102198.28;5051924;28;19930;-67
2022/12/27 03:16:58;;;;;;;;;;;;;;;3.31;96.93;102196.28;5072468;28;19954;-67
2022/12/27 03:33:11;;;;;;;;;;;;;;;3.15;98.13;102208.72;5085853;28;19970;-67
2022/12/27 03:33:21;;;;;;;;;;;;;;;3.21;97.28;102221.81;5051977;28;19920;-67
2022/12/27 03:38:45;;;;;;;;;;;;;;;3.21;98.10;102223.53;5052283;28;20090;-67
2022/12/27 03:44:24;;;;;;;;;;;;;;;3.15;98.02;102235.03;5011015;28;20376;-68
2022/12/27 03:46:57;;;;;;;;;;;;;;;3.11;97.87;102238.53;5051575;28;19917;-68
2022/12/27 03:49:22;;;;;;;;;;;;;;;3.21;97.20;102236.69;5069475;28;20371;-67
2022/12/27 03:52:00;;;;;;;;;;;;;;;3.08;98.67;102236.81;5069784;28;20089;-68
2022/12/27 03:54:28;;;;;;;;;;;;;;;3.30;97.61;102248.00;5069768;28;19951;-68
2022/12/27 03:56:58;;;;;;;;;;;;;;;3.14;98.48;102249.03;5070592;28;19913;-67
2022/12/27 03:59:24;;;;;;;;;;;;;;;3.11;98.97;102252.56;5071552;28;19958;-67
2022/12/27 04:01:51;;;;;;;;;;;;;;;3.15;98.32;102250.78;5058098;28;19957;-68
2022/12/27 04:04:17;;;;;;;;;;;;;;;3.12;98.93;102248.19;5069176;28;19916;-67
2022/12/27 04:06:42;;;;;;;;;;;;;;;3.10;98.83;102256.09;5069338;28;19916;-68
2022/12/27 04:36:31;;;;;;;;;;;;;;;3.03;99.60;102251.78;5102073;28;19970;-67
2022/12/27 04:38:57;;;;;;;;;;;;;;;2.95;99.55;102253.59;5070488;28;19916;-67
2022/12/27 04:55:09;;;;;;;;;;;;;;;3.06;98.84;102257.00;5073329;28;19936;-67
2022/12/27 04:57:35;;;;;;;;;;;;;;;2.97;99.50;102254.44;5072817;28;20379;-68
2022/12/27 05:02:44;;;;;;;;;;;;;;;2.96;100.00;102273.72;5055615;28;19962;-67
2022/12/27 05:05:09;;;;;;;;;;;;;;;2.94;99.89;102267.59;5053222;28;19908;-67
2022/12/27 05:15:48;;;;;;;;;;;;;;;3.07;99.37;102274.50;5055056;28;20004;-68
2022/12/27 05:18:13;;;;;;;;;;;;;;;3.16;97.68;102268.28;5053543;28;20372;-68
2022/12/27 05:20:39;;;;;;;;;;;;;;;3.07;98.53;102273.63;5069348;28;19952;-67
2022/12/27 05:25:49;;;;;;;;;;;;;;;3.14;98.20;102280.56;5074881;28;19969;-67
2022/12/27 05:28:14;;;;;;;;;;;;;;;3.12;98.60;102282.38;5072203;28;19916;-66
2022/12/27 05:30:44;;;;;;;;;;;;;;;3.00;100.00;102282.44;5052924;28;20000;-67
2022/12/27 05:33:10;;;;;;;;;;;;;;;3.04;100.00;102286.81;5053257;28;19920;-67
2022/12/27 05:35:36;;;;;;;;;;;;;;;3.00;100.00;102304.38;5054603;28;20414;-67
2022/12/27 05:38:02;;;;;;;;;;;;;;;3.01;99.76;102308.72;5054508;28;19908;-67
2022/12/27 05:40:27;;;;;;;;;;;;;;;3.03;100.00;102306.97;5054844;28;19932;-68
2022/12/27 05:42:52;;;;;;;;;;;;;;;3.02;100.00;102310.47;5086470;28;19917;-67
2022/12/27 05:45:18;;;;;;;;;;;;;;;3.01;100.00;102318.38;5053983;28;19913;-67
2022/12/27 05:47:44;;;;;;;;;;;;;;;2.98;99.98;102323.66;5054104;28;19908;-68
2022/12/27 05:50:09;;;;;;;;;;;;;;;2.95;99.87;102322.78;5071774;28;19913;-68
2022/12/27 05:52:35;;;;;;;;;;;;;;;2.96;99.97;102315.78;5088467;28;20011;-67
2022/12/27 05:55:00;;;;;;;;;;;;;;;2.91;99.90;102321.06;5073317;28;19909;-68
2022/12/27 05:57:25;;;;;;;;;;;;;;;2.88;99.77;102328.97;5073643;28;19915;-68
2022/12/27 05:59:51;;;;;;;;;;;;;;;2.89;100.00;102332.47;5070608;28;19951;-67
2022/12/27 06:02:16;;;;;;;;;;;;;;;2.85;99.53;102334.22;5052789;28;19928;-67
2022/12/27 06:04:42;;;;;;;;;;;;;;;2.83;99.91;102337.78;5053279;28;19908;-67
2022/12/27 06:07:09;;;;;;;;;;;;;;;2.86;99.81;102333.38;5062178;28;19908;-67
2022/12/27 06:09:34;;;;;;;;;;;;;;;2.82;99.85;102339.50;5067976;28;19967;-68
2022/12/27 06:11:59;;;;;;;;;;;;;;;2.82;100.00;102341.28;5073508;28;19908;-67
2022/12/27 06:14:25;;;;;;;;;;;;;;;2.82;99.63;102336.00;5089003;28;20287;-68
2022/12/27 06:16:50;;;;;;;;;;;;;;;2.82;99.68;102339.50;5073579;28;20435;-67
2022/12/27 06:19:15;;;;;;;;;;;;;;;2.78;99.59;102342.19;5087074;28;19919;-67
2022/12/27 06:21:41;;;;;;;;;;;;;;;2.76;99.52;102339.56;5073251;28;20291;-67
2022/12/27 06:24:09;;;;;;;;;;;;;;;2.75;100.00;102339.56;5072664;28;20390;-67
2022/12/27 06:26:34;;;;;;;;;;;;;;;2.73;100.00;102329.06;5072582;28;19962;-67
2022/12/27 06:29:00;;;;;;;;;;;;;;;2.73;100.00;102332.56;5059883;28;19921;-67
2022/12/27 06:31:25;;;;;;;;;;;;;;;2.69;100.00;102340.50;5085400;28;20306;-67
2022/12/27 06:33:51;;;;;;;;;;;;;;;2.68;99.88;102344.00;5052904;28;19909;-68
2022/12/27 06:36:18;;;;;;;;;;;;;;;2.67;100.00;102347.50;5052935;28;19909;-68
2022/12/27 06:38:44;;;;;;;;;;;;;;;2.67;100.00;102348.34;5053670;28;19919;-67
2022/12/27 06:41:11;;;;;;;;;;;;;;;2.63;100.00;102337.91;5052901;28;19908;-67
2022/12/27 06:43:36;;;;;;;;;;;;;;;2.60;99.67;102338.78;5052128;28;20351;-68
2022/12/27 06:46:03;;;;;;;;;;;;;;;2.61;99.96;102351.03;5049941;28;19948;-67
2022/12/27 06:48:31;;;;;;;;;;;;;;;2.58;99.73;102337.03;5061206;28;20299;-68
2022/12/27 06:50:56;;;;;;;;;;;;;;;2.59;99.85;102341.41;5069215;28;19981;-68
2022/12/27 06:53:22;;;;;;;;;;;;;;;2.58;99.91;102344.94;5082397;28;19959;-67
2022/12/27 06:55:47;;;;;;;;;;;;;;;2.47;100.00;102350.22;5052523;28;19948;-67
2022/12/27 06:58:13;;;;;;;;;;;;;;;2.46;100.00;102336.22;5056656;28;20389;-67
2022/12/27 07:00:38;;;;;;;;;;;;;;;2.46;100.00;102349.34;5071871;28;19912;-67
2022/12/27 07:03:04;;;;;;;;;;;;;;;2.50;99.82;102345.00;5060048;28;19912;-68
2022/12/27 07:05:30;;;;;;;;;;;;;;;2.47;100.00;102339.72;5067757;28;19991;-68
2022/12/27 07:07:55;;;;;;;;;;;;;;;2.54;100.00;102346.69;5067166;28;19908;-67
2022/12/27 07:10:23;;;;;;;;;;;;;;;2.59;100.00;102349.28;5083999;28;20482;-68
2022/12/27 07:12:48;;;;;;;;;;;;;;;2.44;100.00;102353.75;5066501;28;19923;-67
2022/12/27 07:15:14;;;;;;;;;;;;;;;2.49;99.74;102357.22;5065631;28;19917;-67
2022/12/27 07:17:39;;;;;;;;;;;;;;;2.69;99.58;102353.63;5085157;28;19962;-67
2022/12/27 07:20:08;;;;;;;;;;;;;;;2.47;100.00;102355.47;5069925;28;19957;-67
2022/12/27 07:22:33;;;;;;;;;;;;;;;2.48;100.00;102362.50;5072505;28;19919;-67
2022/12/27 07:24:58;;;;;;;;;;;;;;;2.48;100.00;102365.13;5104441;28;19920;-67
2022/12/27 07:27:24;;;;;;;;;;;;;;;2.52;100.00;102369.47;5104825;28;20038;-67
2022/12/27 07:29:49;;;;;;;;;;;;;;;2.54;100.00;102375.59;5071177;28;19965;-67
2022/12/27 07:32:14;;;;;;;;;;;;;;;2.51;100.00;102370.34;5072117;28;20373;-67
2022/12/27 07:34:40;;;;;;;;;;;;;;;2.53;100.00;102372.97;5057093;28;20292;-68
2022/12/27 07:37:05;;;;;;;;;;;;;;;2.56;100.00;102371.22;5065987;28;19978;-67
2022/12/27 07:39:33;;;;;;;;;;;;;;;2.54;100.00;102378.22;5081908;28;19916;-67
2022/12/27 07:41:58;;;;;;;;;;;;;;;2.69;100.00;102370.25;5069801;28;19912;-68
2022/12/27 07:44:24;;;;;;;;;;;;;;;2.68;100.00;102372.91;5069162;28;19950;-67
2022/12/27 07:46:50;;;;;;;;;;;;;;;2.60;100.00;102374.69;5071515;28;19908;-68
2022/12/27 07:49:17;;;;;;;;;;;;;;;2.60;100.00;102377.31;5067671;28;19962;-68
2022/12/27 07:51:43;;;;;;;;;;;;;;;2.56;100.00;102386.06;5050110;28;19917;-67
2022/12/27 07:54:09;;;;;;;;;;;;;;;2.55;100.00;102379.94;5051277;28;19908;-67
2022/12/27 07:56:35;;;;;;;;;;;;;;;2.54;100.00;102366.84;5053160;28;20363;-67
2022/12/27 07:59:01;;;;;;;;;;;;;;;2.59;100.00;102380.81;5063802;28;19913;-67
2022/12/27 08:01:28;;;;;;;;;;;;;;;2.59;100.00;102375.56;5035750;28;19909;-67
2022/12/27 08:03:54;;;;;;;;;;;;;;;2.59;100.00;102383.44;5051072;28;20003;-67
2022/12/27 08:06:21;;;;;;;;;;;;;;;2.60;100.00;102383.44;5036007;28;19957;-68
2022/12/27 08:08:47;;;;;;;;;;;;;;;2.67;100.00;102387.75;5034854;28;19913;-67
2022/12/27 08:11:15;;;;;;;;;;;;;;;2.68;100.00;102397.41;5056633;28;19931;-68
2022/12/27 08:13:42;;;;;;;;;;;;;;;2.72;100.00;102393.00;5055568;28;19909;-67
2022/12/27 08:16:13;;;;;;;;;;;;;;;2.71;100.00;102405.28;5055429;28;19916;-67
2022/12/27 08:18:39;;;;;;;;;;;;;;;2.73;100.00;102402.63;5055561;28;19999;-67
2022/12/27 08:21:05;;;;;;;;;;;;;;;2.75;100.00;102400.00;5055777;28;20339;-67
2022/12/27 08:23:31;;;;;;;;;;;;;;;2.82;100.00;102407.81;5072631;28;19908;-67
2022/12/27 08:25:56;;;;;;;;;;;;;;;2.80;100.00;102411.38;5074431;28;19919;-67
2022/12/27 08:28:21;;;;;;;;;;;;;;;2.81;100.00;102416.59;5075196;28;19920;-68
2022/12/27 08:30:47;;;;;;;;;;;;;;;2.83;100.00;102416.59;5056028;28;19943;-68
2022/12/27 08:33:14;;;;;;;;;;;;;;;2.87;100.00;102418.31;5053969;28;20397;-67
2022/12/27 08:35:40;;;;;;;;;;;;;;;2.84;100.00;102419.19;5087839;28;19916;-67
2022/12/27 08:38:05;;;;;;;;;;;;;;;2.86;100.00;102416.59;5054988;28;19970;-67
2022/12/27 08:40:31;;;;;;;;;;;;;;;2.84;100.00;102405.19;5055829;28;20355;-67
2022/12/27 08:42:56;;;;;;;;;;;;;;;2.89;100.00;102406.06;5087282;28;19920;-67
2022/12/27 08:45:23;;;;;;;;;;;;;;;2.91;100.00;102402.53;5053022;28;19908;-67
2022/12/27 08:47:49;;;;;;;;;;;;;;;2.89;100.00;102398.16;5054890;28;19909;-67
2022/12/27 08:50:14;;;;;;;;;;;;;;;3.08;100.00;102397.16;5071020;28;19928;-67
2022/12/27 08:52:40;;;;;;;;;;;;;;;3.00;100.00;102390.19;5074701;28;19908;-67
2022/12/27 08:55:05;;;;;;;;;;;;;;;3.00;100.00;102384.94;5074194;28;19966;-67
2022/12/27 08:57:30;;;;;;;;;;;;;;;3.05;100.00;102394.53;5074750;28;19981;-67
2022/12/27 08:59:56;;;;;;;;;;;;;;;3.05;100.00;102397.16;5072651;28;19912;-67
2022/12/27 09:02:21;;;;;;;;;;;;;;;3.14;100.00;102394.47;5090146;28;19912;-67
2022/12/27 09:04:46;;;;;;;;;;;;;;;3.09;100.00;102400.63;5073046;28;19974;-66
2022/12/27 09:07:11;;;;;;;;;;;;;;;3.12;100.00;102404.16;5090529;28;19913;-67
2022/12/27 09:09:37;;;;;;;;;;;;;;;3.23;100.00;102398.78;5059315;28;19963;-67
2022/12/27 09:12:04;;;;;;;;;;;;;;;3.17;100.00;102404.09;5054617;28;19944;-67
2022/12/27 09:14:29;;;;;;;;;;;;;;;3.16;100.00;102403.22;5053004;28;19912;-67
2022/12/27 09:16:54;;;;;;;;;;;;;;;3.21;100.00;102400.59;5054370;28;19938;-67
2022/12/27 09:19:20;;;;;;;;;;;;;;;3.24;100.00;102399.69;5055412;28;19916;-66
2022/12/27 09:21:45;;;;;;;;;;;;;;;3.32;100.00;102406.59;5054542;28;19933;-67
2022/12/27 09:24:11;;;;;;;;;;;;;;;3.37;100.00;102393.44;5053955;28;19913;-67
2022/12/27 09:26:36;;;;;;;;;;;;;;;3.40;100.00;102406.56;5054254;28;20011;-67
2022/12/27 09:29:02;;;;;;;;;;;;;;;3.45;100.00;102398.63;5064013;28;20020;-67
2022/12/27 09:31:27;;;;;;;;;;;;;;;3.47;100.00;102404.75;5072649;28;19933;-67
2022/12/27 09:33:53;;;;;;;;;;;;;;;3.53;100.00;102407.31;5061302;28;19908;-67
2022/12/27 09:36:20;;;;;;;;;;;;;;;3.58;100.00;102406.38;5053838;28;19961;-67
2022/12/27 09:38:45;;;;;;;;;;;;;;;3.71;100.00;102416.84;5054744;28;19971;-67
2022/12/27 09:41:29;;;;;;;;;;;;;;;3.71;100.00;102415.06;5053985;28;19909;-67
2022/12/27 09:44:03;;;;;;;;;;;;;;;3.85;100.00;102414.91;5053543;28;19909;-67
2022/12/27 09:46:47;;;;;;;;;;;;;;;4.00;100.00;102411.25;5053753;28;19909;-67
2022/12/27 09:49:13;;;;;;;;;;;;;;;3.98;100.00;102411.28;5067450;28;19943;-67
2022/12/27 09:51:47;;;;;;;;;;;;;;;4.07;100.00;102420.84;5073685;28;19919;-67
2022/12/27 09:54:14;;;;;;;;;;;;;;;4.18;100.00;102411.06;5073371;28;19951;-67
2022/12/27 09:56:40;;;;;;;;;;;;;;;4.38;100.00;102409.94;5073391;28;20279;-68
2022/12/27 09:59:19;;;;;;;;;;;;;;;4.42;100.00;102407.28;5071792;28;20003;-67
2022/12/27 10:01:47;;;;;;;;;;;;;;;4.57;100.00;102406.22;5072538;28;19909;-68
2022/12/27 10:04:14;;;;;;;;;;;;;;;4.60;100.00;102414.06;5073731;28;20287;-67
2022/12/27 10:06:49;;;;;;;;;;;;;;;4.72;100.00;102411.28;5073724;28;19908;-67
2022/12/27 10:09:19;;;;;;;;;;;;;;;4.92;99.50;102415.41;5073086;28;19995;-66
2022/12/27 10:11:51;;;;;;;;;;;;;;;5.28;97.81;102419.25;5071822;28;19912;-67
2022/12/27 10:14:22;;;;;;;;;;;;;;;5.02;97.82;102395.91;5073041;28;19912;-68
2022/12/27 10:17:01;;;;;;;;;;;;;;;5.19;98.15;102420.25;5073486;28;20001;-68
2022/12/27 10:19:36;;;;;;;;;;;;;;;5.30;97.43;102421.88;5072800;28;19909;-66
2022/12/27 10:22:23;;;;;;;;;;;;;;;5.26;98.72;102425.44;5071531;28;19912;-67
2022/12/27 10:24:58;;;;;;;;;;;;;;;5.31;98.28;102421.84;5072773;28;20375;-67
2022/12/27 10:27:25;;;;;;;;;;;;;;;5.47;98.69;102415.44;5073486;28;20317;-67
2022/12/27 10:29:52;;;;;;;;;;;;;;;5.75;97.22;102400.88;5072842;28;20363;-66
2022/12/27 10:32:17;;;;;;;;;;;;;;;6.04;95.46;102414.44;5071085;28;19917;-67
2022/12/27 10:34:42;;;;;;;;;;;;;;;6.26;95.81;102416.66;5053202;28;20376;-67
2022/12/27 10:37:15;;;;;;;;;;;;;;;6.59;93.23;102420.41;5052980;28;20388;-67
2022/12/27 10:39:40;;;;;;;;;;;;;;;6.88;92.71;102413.59;5050679;28;19923;-67
2022/12/27 10:42:08;;;;;;;;;;;;;;;7.19;92.37;102414.66;5060579;28;20006;-67
2022/12/27 10:44:34;;;;;;;;;;;;;;;7.59;90.73;102412.78;5072560;28;19912;-67
2022/12/27 10:46:59;;;;;;;;;;;;;;;7.86;89.43;102406.78;5072693;28;20394;-67
2022/12/27 10:49:26;;;;;;;;;;;;;;;7.88;87.82;102410.28;5072272;28;20359;-67
2022/12/27 10:51:54;;;;;;;;;;;;;;;8.03;88.60;102411.66;5070803;28;19917;-68
2022/12/27 10:54:27;;;;;;;;;;;;;;;8.28;88.02;102416.25;5070651;28;19982;-68
2022/12/27 10:56:53;;;;;;;;;;;;;;;8.53;88.50;102419.09;5072638;28;20366;-67
2022/12/27 10:59:18;;;;;;;;;;;;;;;8.64;87.41;102422.28;5071076;28;19947;-67
2022/12/27 11:01:45;;;;;;;;;;;;;;;8.18;88.62;102420.94;5064975;28;19959;-67
2022/12/27 11:04:20;;;;;;;;;;;;;;;7.82;86.06;102418.34;5052328;28;19919;-68
2022/12/27 11:07:00;;;;;;;;;;;;;;;7.66;88.64;102420.53;5053156;28;19952;-67
2022/12/27 11:09:30;;;;;;;;;;;;;;;7.42;91.59;102415.88;5050150;28;19916;-68
2022/12/27 11:12:15;;;;;;;;;;;;;;;7.19;90.30;102411.13;5053518;28;19967;-68
2022/12/27 11:15:01;;;;;;;;;;;;;;;7.00;89.81;102406.28;5052477;28;19913;-67
2022/12/27 11:17:37;;;;;;;;;;;;;;;6.90;90.20;102409.16;5052226;28;19916;-68
2022/12/27 11:20:15;;;;;;;;;;;;;;;6.79;89.55;102401.44;5052081;28;19909;-68
2022/12/27 11:22:45;;;;;;;;;;;;;;;6.72;90.10;102407.78;5069483;28;19915;-68
2022/12/27 11:25:12;;;;;;;;;;;;;;;6.71;90.94;102406.06;5071619;28;19912;-67
2022/12/27 11:27:37;;;;;;;;;;;;;;;6.72;90.79;102399.84;5072060;28;19913;-68
2022/12/27 11:30:03;;;;;;;;;;;;;;;6.75;90.13;102405.09;5087326;28;20134;-67
2022/12/27 11:32:28;;;;;;;;;;;;;;;6.61;90.27;102408.00;5068348;28;19924;-68
2022/12/27 11:34:56;;;;;;;;;;;;;;;6.57;90.28;102403.72;5051769;28;20331;-67
2022/12/27 11:37:23;;;;;;;;;;;;;;;6.51;90.30;102406.47;5052779;28;19924;-68
2022/12/27 11:39:51;;;;;;;;;;;;;;;6.60;89.17;102401.00;5051103;28;19912;-64
2022/12/27 11:42:38;;;;;;;;;;;;;;;6.37;90.91;102399.69;5051863;28;19975;-64
2022/12/27 11:45:08;;;;;;;;;;;;;;;6.28;90.87;102396.38;5051569;28;19962;-64
2022/12/27 11:47:33;;;;;;;;;;;;;;;6.26;90.81;102395.53;5052744;28;19919;-64
2022/12/27 11:50:13;;;;;;;;;;;;;;;6.23;91.75;102395.59;5050262;28;20330;-64
2022/12/27 11:52:53;;;;;;;;;;;;;;;6.24;91.38;102398.22;5051437;28;19920;-64
2022/12/27 11:55:27;;;;;;;;;;;;;;;6.22;91.39;102389.44;5051104;28;19909;-63
2022/12/27 11:57:59;;;;;;;;;;;;;;;6.26;91.82;102382.31;5058990;28;20397;-64
2022/12/27 12:00:31;;;;;;;;;;;;;;;6.20;91.37;102377.16;5071598;28;19908;-68
2022/12/27 12:03:15;;;;;;;;;;;;;;;6.24;91.04;102385.00;5071922;28;19908;-67
2022/12/27 12:05:55;;;;;;;;;;;;;;;6.21;91.15;102384.22;5070721;28;20007;-68
2022/12/27 12:08:50;;;;;;;;;;;;;;;6.17;91.61;102379.88;5052812;28;19913;-67
2022/12/27 12:11:24;;;;;;;;;;;;;;;6.14;91.16;102370.22;5014870;28;19917;-67
2022/12/27 12:14:03;;;;;;;;;;;;;;;6.32;91.34;102364.59;5051454;28;19915;-67
2022/12/27 12:16:45;;;;;;;;;;;;;;;6.15;91.70;102361.41;5051702;28;19995;-68
2022/12/27 12:19:29;;;;;;;;;;;;;;;6.15;91.34;102364.06;5047445;28;20003;-68
2022/12/27 12:22:09;;;;;;;;;;;;;;;6.20;91.50;102356.88;5031547;28;19913;-67
2022/12/27 12:24:53;;;;;;;;;;;;;;;6.22;91.42;102356.88;5031025;28;19916;-67
2022/12/27 12:27:34;;;;;;;;;;;;;;;6.27;91.67;102355.03;5054229;28;20402;-67
2022/12/27 12:30:06;;;;;;;;;;;;;;;6.30;91.71;102360.25;5071373;28;19913;-66
2022/12/27 12:32:49;;;;;;;;;;;;;;;6.33;90.98;102370.75;5052305;28;19948;-67
2022/12/27 12:35:18;;;;;;;;;;;;;;;6.35;91.74;102363.63;5050732;28;19913;-67
2022/12/27 12:37:44;;;;;;;;;;;;;;;6.40;91.64;102358.25;5061517;28;20340;-67
2022/12/27 12:40:28;;;;;;;;;;;;;;;6.45;91.15;102357.25;5055303;28;19912;-67
2022/12/27 12:43:05;;;;;;;;;;;;;;;6.50;91.48;102346.56;5067366;28;19909;-67
2022/12/27 12:45:37;;;;;;;;;;;;;;;6.42;91.04;102349.41;5054202;28;19962;-67
2022/12/27 12:48:08;;;;;;;;;;;;;;;6.41;91.69;102339.72;5086140;28;19932;-67
2022/12/27 12:50:33;;;;;;;;;;;;;;;6.38;91.95;102342.41;5053918;28;19913;-67
2022/12/27 12:53:17;;;;;;;;;;;;;;;6.35;91.41;102331.91;5054312;28;19966;-67
2022/12/27 12:56:05;;;;;;;;;;;;;;;6.31;91.25;102330.25;5054263;28;19912;-67
2022/12/27 12:58:39;;;;;;;;;;;;;;;6.29;91.75;102318.84;5033738;28;20265;-67
2022/12/27 13:01:20;;;;;;;;;;;;;;;6.35;91.56;102305.50;5053275;28;19913;-67
2022/12/27 13:04:04;;;;;;;;;;;;;;;6.32;91.80;102302.91;5054310;28;19979;-67
2022/12/27 13:06:49;;;;;;;;;;;;;;;6.33;92.02;102286.19;5060913;28;19953;-67
2022/12/27 13:09:29;;;;;;;;;;;;;;;6.55;90.42;102292.72;5068943;28;20368;-67
2022/12/27 13:12:03;;;;;;;;;;;;;;;6.45;90.96;102285.91;5054525;28;19919;-67
2022/12/27 13:14:47;;;;;;;;;;;;;;;6.41;91.76;102281.56;5054065;28;19955;-67
2022/12/27 13:17:33;;;;;;;;;;;;;;;6.44;91.62;102281.53;5071139;28;20299;-67
2022/12/27 13:20:21;;;;;;;;;;;;;;;6.51;91.08;102282.25;5053854;28;20379;-67
2022/12/27 13:23:09;;;;;;;;;;;;;;;6.53;91.30;102277.78;5054511;28;19909;-67
2022/12/27 13:25:39;;;;;;;;;;;;;;;6.42;91.64;102275.41;5056956;28;19909;-67
2022/12/27 13:28:42;;;;;;;;;;;;;;;6.39;91.30;102279.91;5074398;28;19917;-67
2022/12/27 13:31:16;;;;;;;;;;;;;;;6.35;91.30;102282.63;5012326;28;19917;-67
2022/12/27 13:33:42;;;;;;;;;;;;;;;6.33;91.43;102276.47;5000976;28;20052;-67
2022/12/27 13:36:14;;;;;;;;;;;;;;;6.28;91.76;102267.78;5025425;28;19963;-67
2022/12/27 13:38:49;;;;;;;;;;;;;;;6.32;92.01;102258.00;5053434;28;19923;-67
2022/12/27 13:41:26;;;;;;;;;;;;;;;6.35;91.54;102252.66;5053452;28;20299;-67
2022/12/27 13:43:59;;;;;;;;;;;;;;;6.39;92.15;102238.47;5072027;28;20259;-67
2022/12/27 13:46:44;;;;;;;;;;;;;;;6.48;91.75;102229.47;5072501;28;19913;-67
2022/12/27 13:49:29;;;;;;;;;;;;;;;6.54;91.30;102226.69;5071792;28;19923;-67
2022/12/27 13:52:01;;;;;;;;;;;;;;;6.59;91.83;102228.31;5071725;28;20387;-67
2022/12/27 13:54:26;;;;;;;;;;;;;;;6.72;91.08;102226.22;5070846;28;19912;-67
2022/12/27 13:56:51;;;;;;;;;;;;;;;6.69;91.17;102221.00;5072313;28;19919;-67
2022/12/27 13:59:26;;;;;;;;;;;;;;;6.70;90.98;102208.66;5073680;28;19908;-66
2022/12/27 14:02:10;;;;;;;;;;;;;;;6.62;91.62;102205.31;5065227;28;20372;-67
2022/12/27 14:04:44;;;;;;;;;;;;;;;6.63;91.99;102209.72;5053248;28;19909;-66
2022/12/27 14:07:32;;;;;;;;;;;;;;;6.64;91.72;102214.09;5053702;28;20007;-67
2022/12/27 14:10:14;;;;;;;;;;;;;;;6.58;91.73;102218.63;5051697;28;19919;-66
2022/12/27 14:12:39;;;;;;;;;;;;;;;6.65;91.66;102214.06;5064542;28;19916;-67
2022/12/27 14:15:12;;;;;;;;;;;;;;;6.62;91.62;102214.16;5073356;28;19912;-67
2022/12/27 14:17:56;;;;;;;;;;;;;;;6.69;91.18;102205.16;5072080;28;20382;-66
2022/12/27 14:20:21;;;;;;;;;;;;;;;6.54;92.05;102211.69;5073294;28;20295;-67
2022/12/27 14:22:59;;;;;;;;;;;;;;;6.47;92.01;102202.19;5054965;28;19939;-66
2022/12/27 14:25:43;;;;;;;;;;;;;;;6.42;92.81;102206.69;5056117;28;20355;-66
2022/12/27 14:28:31;;;;;;;;;;;;;;;6.42;92.73;102204.06;5071730;28;19967;-66
2022/12/27 14:31:19;;;;;;;;;;;;;;;6.48;92.23;102209.19;5043891;28;20500;-66
2022/12/27 14:34:03;;;;;;;;;;;;;;;6.53;92.12;102206.41;5061953;28;19999;-69
2022/12/27 14:36:29;;;;;;;;;;;;;;;6.53;92.19;102196.75;5069198;28;19919;-67
2022/12/27 14:38:57;;;;;;;;;;;;;;;6.51;92.72;102193.25;5085146;28;19912;-67
2022/12/27 14:41:43;;;;;;;;;;;;;;;6.49;92.72;102188.91;5084888;28;19998;-66